Time;durP1;ratioP1;P1;durP2;ratioP2;P2;SDS_P1;SDS_P2;PMS_P1;PMS_P2;Temp;Humidity;BMP_temperature;BMP_pressure;BME280_temperature;BME280_humidity;BME280_pressure;Samples;Min_cycle;Max_cycle;Signal;HPM_P1;HPM_P2
2022/12/05 00:01:42;;;;;;;11.77;6.15;;;3.60;99.90;;;;;;4977372;28;20035;-66
2022/12/05 00:04:12;;;;;;;14.13;6.53;;;3.60;99.90;;;;;;4983933;28;20038;-66
2022/12/05 00:06:40;;;;;;;12.85;4.95;;;3.60;99.90;;;;;;4970229;28;20043;-66
2022/12/05 00:09:10;;;;;;;21.40;8.32;;;3.60;99.90;;;;;;4967061;28;20519;-66
2022/12/05 00:11:38;;;;;;;21.70;6.20;;;3.60;99.90;;;;;;4959640;28;20121;-66
2022/12/05 00:14:07;;;;;;;18.05;7.15;;;3.60;99.90;;;;;;4962102;28;20031;-66
2022/12/05 00:16:36;;;;;;;17.38;6.55;;;3.60;99.90;;;;;;4965365;28;20624;-66
2022/12/05 00:19:04;;;;;;;13.57;6.00;;;3.60;99.90;;;;;;4958140;28;20038;-66
2022/12/05 00:21:33;;;;;;;17.35;6.93;;;3.60;99.90;;;;;;4957539;28;20019;-66
2022/12/05 00:24:00;;;;;;;15.55;7.70;;;3.60;99.90;;;;;;4958648;28;20486;-66
2022/12/05 00:26:27;;;;;;;14.80;7.18;;;3.60;99.90;;;;;;4965905;28;20040;-66
2022/12/05 00:28:53;;;;;;;18.48;8.45;;;3.60;99.90;;;;;;4961436;28;20042;-66
2022/12/05 00:31:22;;;;;;;25.63;7.57;;;3.60;99.90;;;;;;4957589;28;20035;-66
2022/12/05 00:33:49;;;;;;;20.15;6.85;;;3.60;99.90;;;;;;4956294;28;20041;-66
2022/12/05 00:36:22;;;;;;;20.65;7.22;;;3.60;99.90;;;;;;4955450;28;20045;-66
2022/12/05 00:38:48;;;;;;;23.00;7.55;;;3.60;99.90;;;;;;4955796;28;20035;-66
2022/12/05 00:41:18;;;;;;;22.33;7.88;;;3.60;99.90;;;;;;4957418;28;20022;-66
2022/12/05 00:43:44;;;;;;;25.33;9.20;;;3.60;99.90;;;;;;4970764;28;20236;-66
2022/12/05 00:46:18;;;;;;;19.48;7.85;;;3.70;99.90;;;;;;4956563;28;20042;-67
2022/12/05 00:48:44;;;;;;;16.77;8.00;;;3.60;99.90;;;;;;4952744;28;20039;-66
2022/12/05 00:51:17;;;;;;;27.70;7.88;;;3.60;99.90;;;;;;4944025;28;20049;-66
2022/12/05 00:53:45;;;;;;;19.33;6.93;;;3.60;99.90;;;;;;4955433;28;20043;-67
2022/12/05 00:56:15;;;;;;;14.93;8.25;;;3.60;99.90;;;;;;4954113;28;20042;-66
2022/12/05 00:58:42;;;;;;;20.00;5.80;;;3.70;99.90;;;;;;4942677;28;20402;-66
2022/12/05 01:01:24;;;;;;;16.27;5.72;;;3.70;99.90;;;;;;4960770;28;20034;-66
2022/12/05 01:03:56;;;;;;;16.10;6.40;;;3.70;99.90;;;;;;4979547;28;20035;-65
2022/12/05 01:06:24;;;;;;;14.55;7.10;;;3.70;99.90;;;;;;4957884;28;20092;-65
2022/12/05 01:08:51;;;;;;;20.23;4.47;;;3.70;99.90;;;;;;4949735;28;20062;-66
2022/12/05 01:11:18;;;;;;;14.32;6.57;;;3.80;99.90;;;;;;4961997;28;20049;-66
2022/12/05 01:13:45;;;;;;;19.55;6.07;;;3.70;99.90;;;;;;4955060;28;20035;-66
2022/12/05 01:16:18;;;;;;;12.18;6.80;;;3.70;99.90;;;;;;4949116;28;20050;-66
2022/12/05 01:18:44;;;;;;;22.77;8.38;;;3.70;99.90;;;;;;4953820;28;20023;-66
2022/12/05 01:21:10;;;;;;;16.33;7.68;;;3.70;99.90;;;;;;4952553;28;20116;-66
2022/12/05 01:23:36;;;;;;;12.10;5.55;;;3.70;99.90;;;;;;4949668;28;20035;-66
2022/12/05 01:26:07;;;;;;;11.05;7.63;;;3.70;99.90;;;;;;4936831;28;20468;-65
2022/12/05 01:28:34;;;;;;;14.32;6.13;;;3.80;99.90;;;;;;4938651;28;20171;-66
2022/12/05 01:31:06;;;;;;;13.88;5.88;;;3.80;99.90;;;;;;4955521;28;20026;-65
2022/12/05 01:33:33;;;;;;;16.45;6.95;;;3.80;99.90;;;;;;4972455;28;20030;-66
2022/12/05 01:35:59;;;;;;;16.70;7.25;;;3.80;99.90;;;;;;4983881;28;20033;-65
2022/12/05 01:38:24;;;;;;;13.27;6.22;;;3.80;99.90;;;;;;4974170;28;20026;-65
2022/12/05 01:41:00;;;;;;;12.57;6.85;;;3.80;99.90;;;;;;4987717;28;20038;-66
2022/12/05 01:43:26;;;;;;;22.60;7.40;;;3.80;99.90;;;;;;4967287;28;20030;-66
2022/12/05 01:45:52;;;;;;;31.40;8.15;;;3.80;99.90;;;;;;4987577;28;20081;-65
2022/12/05 01:48:29;;;;;;;20.45;8.43;;;3.80;99.90;;;;;;4991580;28;20113;-65
2022/12/05 01:50:56;;;;;;;19.65;6.68;;;3.80;99.90;;;;;;4972996;28;20034;-65
2022/12/05 01:53:22;;;;;;;22.50;7.93;;;3.80;99.90;;;;;;4973856;28;20065;-66
2022/12/05 01:55:50;;;;;;;24.13;8.68;;;3.80;99.90;;;;;;4971915;28;20100;-65
2022/12/05 01:58:17;;;;;;;18.25;6.78;;;3.80;99.90;;;;;;4974306;28;20038;-66
2022/12/05 02:00:43;;;;;;;21.33;6.90;;;3.80;99.90;;;;;;4970770;28;20108;-66
2022/12/05 02:03:16;;;;;;;32.28;8.82;;;3.80;99.90;;;;;;4990655;28;20054;-66
2022/12/05 02:05:44;;;;;;;17.80;7.15;;;3.70;99.90;;;;;;4953107;28;20047;-66
2022/12/05 02:08:11;;;;;;;17.05;8.77;;;3.80;99.90;;;;;;4947525;28;20027;-65
2022/12/05 02:10:53;;;;;;;15.30;7.00;;;3.70;99.90;;;;;;4952008;28;20483;-66
2022/12/05 02:14:18;;;;;;;22.20;7.93;;;3.70;99.90;;;;;;4954001;28;20031;-66
2022/12/05 02:17:01;;;;;;;13.50;7.13;;;3.70;99.90;;;;;;4955715;28;20071;-65
2022/12/05 02:19:48;;;;;;;20.52;6.80;;;3.70;99.90;;;;;;4961292;28;20039;-65
2022/12/05 02:22:53;;;;;;;21.83;9.75;;;3.70;99.90;;;;;;4951955;28;20046;-66
2022/12/05 02:25:36;;;;;;;18.08;7.85;;;3.70;99.90;;;;;;4933786;28;20038;-66
2022/12/05 02:28:39;;;;;;;27.50;7.85;;;3.70;99.90;;;;;;4937058;28;20039;-66
2022/12/05 02:31:36;;;;;;;21.20;7.85;;;3.70;99.90;;;;;;4951554;28;20043;-66
2022/12/05 02:34:28;;;;;;;23.10;7.82;;;3.60;99.90;;;;;;4951109;28;20066;-66
2022/12/05 02:37:11;;;;;;;19.88;6.13;;;3.60;99.90;;;;;;4951076;28;20058;-66
2022/12/05 02:40:03;;;;;;;18.85;6.90;;;3.60;99.90;;;;;;4939468;28;20031;-66
2022/12/05 02:42:34;;;;;;;15.95;6.90;;;3.60;99.90;;;;;;4950461;28;20104;-66
2022/12/05 02:45:09;;;;;;;18.67;7.65;;;3.60;99.90;;;;;;4980894;28;20041;-66
2022/12/05 02:47:50;;;;;;;15.82;6.53;;;3.60;99.90;;;;;;4973322;28;20030;-66
2022/12/05 02:50:23;;;;;;;26.70;9.55;;;3.60;99.90;;;;;;4963769;28;20038;-66
2022/12/05 02:52:53;;;;;;;24.45;6.47;;;3.70;99.90;;;;;;4975601;28;20065;-65
2022/12/05 02:55:21;;;;;;;27.10;7.35;;;3.60;99.90;;;;;;4966079;28;20033;-66
2022/12/05 02:57:57;;;;;;;23.65;7.22;;;3.60;99.90;;;;;;4969940;28;20385;-66
2022/12/05 03:00:22;;;;;;;17.08;5.80;;;3.60;99.90;;;;;;4952668;28;20027;-66
2022/12/05 03:02:55;;;;;;;23.02;8.75;;;3.70;99.90;;;;;;4990233;28;20023;-65
2022/12/05 03:05:47;;;;;;;27.50;8.68;;;3.70;99.90;;;;;;4953153;28;20034;-66
2022/12/05 03:08:20;;;;;;;19.95;7.47;;;3.80;99.90;;;;;;4960990;28;20490;-66
2022/12/05 03:10:49;;;;;;;31.70;10.07;;;3.80;99.90;;;;;;4964133;28;20038;-66
2022/12/05 03:13:23;;;;;;;16.45;7.97;;;3.70;99.90;;;;;;4977636;28;20038;-66
2022/12/05 03:15:59;;;;;;;31.92;8.10;;;3.60;99.90;;;;;;4986174;28;20117;-66
2022/12/05 03:18:40;;;;;;;31.13;9.88;;;3.60;99.90;;;;;;4977013;28;20488;-66
2022/12/05 03:21:33;;;;;;;33.57;9.90;;;3.60;99.90;;;;;;4974616;28;20046;-65
2022/12/05 03:24:09;;;;;;;19.27;8.15;;;3.50;99.90;;;;;;4976143;28;20300;-66
2022/12/05 03:27:14;;;;;;;18.05;7.72;;;3.60;99.90;;;;;;4978168;28;20162;-65
2022/12/05 03:29:50;;;;;;;21.10;7.55;;;3.60;99.90;;;;;;4938502;28;20192;-65
2022/12/05 03:32:43;;;;;;;15.98;7.38;;;3.70;99.90;;;;;;4941319;28;20027;-66
2022/12/05 03:35:28;;;;;;;28.85;9.80;;;3.60;99.90;;;;;;4958507;28;20030;-66
2022/12/05 03:38:05;;;;;;;20.58;9.32;;;3.50;99.90;;;;;;4953939;28;20032;-66
2022/12/05 03:40:35;;;;;;;24.40;11.90;;;3.50;99.90;;;;;;4942651;28;20031;-66
2022/12/05 03:43:16;;;;;;;24.67;8.18;;;3.50;99.90;;;;;;4936122;28;20479;-66
2022/12/05 03:45:52;;;;;;;26.55;10.80;;;3.40;99.90;;;;;;4972838;28;20049;-66
2022/12/05 03:48:40;;;;;;;31.50;9.27;;;3.40;99.90;;;;;;4947248;28;20051;-65
2022/12/05 03:51:09;;;;;;;27.65;9.00;;;3.50;99.90;;;;;;4956600;28;20046;-66
2022/12/05 03:53:45;;;;;;;32.28;8.95;;;3.50;99.90;;;;;;4944750;28;20043;-66
2022/12/05 03:56:39;;;;;;;21.70;8.88;;;3.50;99.90;;;;;;4940337;28;20126;-65
2022/12/05 03:59:21;;;;;;;34.25;7.75;;;3.50;99.90;;;;;;4930531;28;20047;-66
2022/12/05 04:01:49;;;;;;;26.65;7.75;;;3.50;99.90;;;;;;4942906;28;20027;-66
2022/12/05 04:04:33;;;;;;;17.17;7.53;;;3.50;99.90;;;;;;4939922;28;20039;-66
2022/12/05 04:07:03;;;;;;;13.48;8.85;;;3.50;99.90;;;;;;4945454;28;20088;-67
2022/12/05 04:09:42;;;;;;;11.63;6.90;;;3.40;99.90;;;;;;4950077;28;20073;-66
2022/12/05 04:12:15;;;;;;;25.60;9.27;;;3.40;99.90;;;;;;4951719;28;20038;-67
2022/12/05 04:14:51;;;;;;;27.58;9.43;;;3.40;99.90;;;;;;4953872;28;20450;-67
2022/12/05 04:17:25;;;;;;;24.88;8.02;;;3.40;99.90;;;;;;4969008;28;20058;-67
2022/12/05 04:22:39;;;;;;;13.68;5.72;;;3.40;99.90;;;;;;4950307;28;20612;-68
2022/12/05 04:28:38;;;;;;;18.08;6.72;;;3.40;99.90;;;;;;4943096;28;20038;-66
2022/12/05 04:31:16;;;;;;;15.13;8.00;;;3.40;99.90;;;;;;4945072;28;20043;-68
2022/12/05 04:33:56;;;;;;;28.30;8.07;;;3.40;99.90;;;;;;4955595;28;20035;-65
2022/12/05 04:36:38;;;;;;;17.98;7.70;;;3.40;99.90;;;;;;4957127;28;20045;-65
2022/12/05 04:39:38;;;;;;;30.75;10.15;;;3.50;99.90;;;;;;4939324;28;20426;-67
2022/12/05 04:42:13;;;;;;;22.80;8.15;;;3.60;99.90;;;;;;4949036;28;20053;-67
2022/12/05 04:44:53;;;;;;;25.15;7.95;;;3.60;99.90;;;;;;4974866;28;20026;-67
2022/12/05 04:47:25;;;;;;;21.13;9.05;;;3.60;99.90;;;;;;4967367;28;20027;-67
2022/12/05 04:49:54;;;;;;;20.83;9.57;;;3.70;99.90;;;;;;4975146;28;20485;-67
2022/12/05 04:52:21;;;;;;;17.17;6.18;;;3.70;99.90;;;;;;4983559;28;20509;-67
2022/12/05 04:54:54;;;;;;;22.75;8.50;;;3.80;99.90;;;;;;4974130;28;20042;-67
2022/12/05 04:57:53;;;;;;;14.73;7.13;;;3.80;99.90;;;;;;4966922;28;20034;-67
2022/12/05 05:00:18;;;;;;;17.80;7.20;;;3.80;99.90;;;;;;4963259;28;20105;-67
2022/12/05 05:02:54;;;;;;;18.58;7.55;;;3.70;99.90;;;;;;4977266;28;20109;-67
2022/12/05 05:05:21;;;;;;;17.77;8.43;;;3.80;99.90;;;;;;4959196;28;20030;-67
2022/12/05 05:07:50;;;;;;;28.13;6.75;;;3.80;99.90;;;;;;4966391;28;20034;-67
2022/12/05 05:10:40;;;;;;;29.77;9.27;;;3.80;99.90;;;;;;4967141;28;20049;-67
2022/12/05 05:13:06;;;;;;;18.42;8.85;;;3.80;99.90;;;;;;4968578;28;20044;-67
2022/12/05 05:15:32;;;;;;;22.98;9.38;;;3.80;99.90;;;;;;4980943;28;20043;-67
2022/12/05 05:17:57;;;;;;;24.08;8.35;;;3.70;99.90;;;;;;4980530;28;20045;-67
2022/12/05 05:20:23;;;;;;;26.00;8.57;;;3.70;99.90;;;;;;4974480;28;20029;-67
2022/12/05 05:22:56;;;;;;;23.13;8.45;;;3.70;99.90;;;;;;4976710;28;20478;-67
2022/12/05 05:25:24;;;;;;;28.27;9.15;;;3.70;99.90;;;;;;4974054;28;20056;-67
2022/12/05 05:27:53;;;;;;;12.32;6.28;;;3.60;99.90;;;;;;4966381;28;20066;-67
2022/12/05 05:30:21;;;;;;;18.80;8.63;;;3.60;99.90;;;;;;4929970;28;20046;-67
2022/12/05 05:32:47;;;;;;;18.80;7.70;;;3.60;99.90;;;;;;4947053;28;20046;-67
2022/12/05 05:35:14;;;;;;;28.30;10.23;;;3.60;99.90;;;;;;4946703;28;20130;-67
2022/12/05 05:37:40;;;;;;;19.63;8.98;;;3.70;99.90;;;;;;4917799;28;20047;-67
2022/12/05 05:40:10;;;;;;;21.27;10.35;;;3.70;99.90;;;;;;4952927;28;20031;-67
2022/12/05 05:42:40;;;;;;;31.95;9.57;;;3.70;99.90;;;;;;4950553;28;20023;-67
2022/12/05 05:45:06;;;;;;;18.52;7.43;;;3.70;99.90;;;;;;4958454;28;20117;-68
2022/12/05 05:47:32;;;;;;;19.52;8.00;;;3.70;99.90;;;;;;4957264;28;20529;-67
2022/12/05 05:49:57;;;;;;;15.75;6.30;;;3.80;99.90;;;;;;4955383;28;20074;-67
2022/12/05 05:52:23;;;;;;;25.27;8.57;;;3.70;99.90;;;;;;4947445;28;20118;-67
2022/12/05 05:54:49;;;;;;;24.10;6.78;;;3.70;99.90;;;;;;4949681;28;20035;-66
2022/12/05 05:57:14;;;;;;;17.75;7.03;;;3.80;99.90;;;;;;4949374;28;20094;-66
2022/12/05 05:59:40;;;;;;;14.13;7.80;;;3.80;99.90;;;;;;4949155;28;20059;-67
2022/12/05 06:02:06;;;;;;;20.98;8.00;;;3.80;99.90;;;;;;4939700;28;20035;-67
2022/12/05 06:04:34;;;;;;;11.38;6.13;;;3.80;99.90;;;;;;4949077;28;20027;-67
2022/12/05 06:07:00;;;;;;;22.90;7.10;;;3.70;99.90;;;;;;4923152;28;20137;-67
2022/12/05 06:09:26;;;;;;;33.75;9.23;;;3.70;99.90;;;;;;4960064;28;20169;-67
2022/12/05 06:11:51;;;;;;;22.65;8.80;;;3.80;99.90;;;;;;4952649;28;20125;-67
2022/12/05 06:14:17;;;;;;;23.67;8.90;;;3.70;99.90;;;;;;4943081;28;20038;-67
2022/12/05 06:16:43;;;;;;;30.15;8.45;;;3.70;99.90;;;;;;4982529;28;20043;-67
2022/12/05 06:19:08;;;;;;;26.90;8.20;;;3.70;99.90;;;;;;4973334;28;20490;-68
2022/12/05 06:21:34;;;;;;;18.90;7.47;;;3.70;99.90;;;;;;4984102;28;20105;-67
2022/12/05 06:24:00;;;;;;;22.35;7.78;;;3.70;99.90;;;;;;4990038;28;20069;-68
2022/12/05 06:26:25;;;;;;;19.20;7.13;;;3.70;99.90;;;;;;4967452;28;20112;-68
2022/12/05 06:28:52;;;;;;;16.15;6.50;;;3.70;99.90;;;;;;4990645;28;20031;-68
2022/12/05 06:31:25;;;;;;;32.28;10.00;;;3.70;99.90;;;;;;4965168;28;20034;-67
2022/12/05 06:33:51;;;;;;;27.38;8.18;;;3.70;99.90;;;;;;4973039;28;20034;-68
2022/12/05 06:36:20;;;;;;;16.88;7.35;;;3.70;99.90;;;;;;4974222;28;20513;-68
2022/12/05 06:38:46;;;;;;;26.13;6.70;;;3.70;99.90;;;;;;4973243;28;20560;-67
2022/12/05 06:41:18;;;;;;;18.35;8.27;;;3.70;99.90;;;;;;4964571;28;20149;-67
2022/12/05 06:43:45;;;;;;;20.65;6.95;;;3.70;99.90;;;;;;4969269;28;20486;-68
2022/12/05 06:46:13;;;;;;;15.70;6.90;;;3.70;99.90;;;;;;4995115;23;20140;-70
2022/12/05 06:48:39;;;;;;;24.05;9.63;;;3.70;99.90;;;;;;5024317;28;20025;-71
2022/12/05 06:51:13;;;;;;;16.65;6.05;;;3.70;99.90;;;;;;5006925;28;20040;-72
2022/12/05 06:53:40;;;;;;;22.42;7.78;;;3.70;99.90;;;;;;5015674;28;20079;-71
2022/12/05 06:56:10;;;;;;;24.48;7.30;;;3.70;99.90;;;;;;5008216;28;20371;-71
2022/12/05 06:58:36;;;;;;;20.52;7.32;;;3.70;99.90;;;;;;5003588;28;20026;-71
2022/12/05 07:03:49;;;;;;;11.88;7.85;;;3.80;99.90;;;;;;5001612;28;20073;-72
2022/12/05 07:06:16;;;;;;;25.95;7.03;;;3.80;99.90;;;;;;4990376;28;20040;-71
2022/12/05 07:08:43;;;;;;;14.50;8.20;;;3.80;99.90;;;;;;4979779;28;20429;-71
2022/12/05 07:11:09;;;;;;;21.05;9.05;;;3.80;99.90;;;;;;4988702;28;20440;-70
2022/12/05 07:13:35;;;;;;;19.70;10.05;;;3.80;99.90;;;;;;4992157;28;20033;-69
2022/12/05 07:16:01;;;;;;;35.95;10.23;;;3.80;99.90;;;;;;4988050;28;20038;-70
2022/12/05 07:18:27;;;;;;;17.75;7.43;;;3.80;99.90;;;;;;4995876;28;20040;-70
2022/12/05 07:21:03;;;;;;;18.42;7.63;;;3.80;99.90;;;;;;4981276;28;20372;-70
2022/12/05 07:23:28;;;;;;;18.70;7.68;;;3.90;99.90;;;;;;4995482;28;20235;-71
2022/12/05 07:25:54;;;;;;;22.23;9.05;;;3.90;99.90;;;;;;4998615;28;20045;-71
2022/12/05 07:28:20;;;;;;;21.48;10.07;;;4.00;99.90;;;;;;4995570;28;20022;-70
2022/12/05 07:30:46;;;;;;;18.33;8.75;;;3.90;99.90;;;;;;4998949;28;20078;-70
2022/12/05 07:33:11;;;;;;;19.58;8.45;;;3.90;99.90;;;;;;5001675;28;20033;-70
2022/12/05 07:35:37;;;;;;;27.50;8.55;;;4.00;99.90;;;;;;4987499;28;20101;-70
2022/12/05 07:38:03;;;;;;;32.17;6.43;;;4.00;99.90;;;;;;5001991;28;20117;-70
2022/12/05 07:40:28;;;;;;;19.73;8.02;;;4.10;99.90;;;;;;5005247;28;20046;-68
2022/12/05 07:42:54;;;;;;;21.35;7.53;;;4.10;99.90;;;;;;5009242;28;20030;-70
2022/12/05 07:45:21;;;;;;;16.70;8.32;;;4.00;99.90;;;;;;4989173;28;20386;-70
2022/12/05 07:47:47;;;;;;;24.75;8.82;;;4.00;99.90;;;;;;4984856;28;20490;-69
2022/12/05 07:50:13;;;;;;;22.15;6.85;;;4.10;99.90;;;;;;4956465;28;20121;-69
2022/12/05 07:52:40;;;;;;;22.60;7.13;;;4.00;99.90;;;;;;4996930;28;20080;-69
2022/12/05 07:55:06;;;;;;;13.13;7.60;;;4.00;99.90;;;;;;4985377;28;20101;-69
2022/12/05 07:57:32;;;;;;;25.95;8.43;;;4.00;99.90;;;;;;4995093;28;20037;-69
2022/12/05 07:59:58;;;;;;;20.35;7.13;;;4.00;99.90;;;;;;5009362;28;20034;-69
2022/12/05 08:02:23;;;;;;;17.83;7.97;;;4.00;99.90;;;;;;4994592;28;20101;-69
2022/12/05 08:04:49;;;;;;;18.17;8.23;;;4.00;99.90;;;;;;5009176;28;20048;-69
2022/12/05 08:07:15;;;;;;;17.70;8.88;;;4.00;99.90;;;;;;4993801;28;20502;-69
2022/12/05 08:09:41;;;;;;;22.98;8.23;;;4.10;99.90;;;;;;5008102;28;20073;-69
2022/12/05 08:12:07;;;;;;;18.55;8.27;;;4.10;99.90;;;;;;4980335;28;20033;-68
2022/12/05 08:14:32;;;;;;;19.20;7.68;;;4.10;99.90;;;;;;4997762;28;20547;-69
2022/12/05 08:16:58;;;;;;;15.35;6.53;;;4.10;99.90;;;;;;4992917;28;20033;-68
2022/12/05 08:19:24;;;;;;;21.48;8.15;;;4.10;99.90;;;;;;4991363;28;20100;-68
2022/12/05 08:21:51;;;;;;;16.48;8.25;;;4.10;99.90;;;;;;4990545;28;20385;-68
2022/12/05 08:24:17;;;;;;;17.52;8.52;;;4.00;99.90;;;;;;4996947;28;20556;-71
2022/12/05 08:26:42;;;;;;;21.42;8.15;;;4.00;99.90;;;;;;5003525;28;20125;-69
2022/12/05 08:29:14;;;;;;;18.52;6.85;;;4.00;99.90;;;;;;4998623;28;20032;-68
2022/12/05 08:31:46;;;;;;;16.15;7.22;;;4.00;99.90;;;;;;5007581;28;20038;-69
2022/12/05 08:34:13;;;;;;;21.83;8.73;;;4.00;99.90;;;;;;5001317;28;20038;-69
2022/12/05 08:36:39;;;;;;;17.48;8.65;;;4.00;99.90;;;;;;5007142;28;20037;-73
2022/12/05 08:39:07;;;;;;;26.85;8.65;;;4.00;99.90;;;;;;5002350;28;20022;-69
2022/12/05 08:41:33;;;;;;;19.65;8.20;;;4.00;99.90;;;;;;5006376;28;20033;-69
2022/12/05 08:44:04;;;;;;;11.98;7.82;;;4.00;99.90;;;;;;5003195;28;20452;-70
2022/12/05 08:46:32;;;;;;;;;;;4.00;99.90;;;;;;5006166;28;20119;-69
2022/12/05 08:48:57;;;;;;;15.98;6.38;;;4.00;99.90;;;;;;5003515;28;19925;-69
2022/12/05 08:51:23;;;;;;;15.30;7.10;;;4.00;99.90;;;;;;5004981;28;20022;-69
2022/12/05 08:53:49;;;;;;;23.05;8.63;;;4.10;99.90;;;;;;5004148;28;20095;-70
2022/12/05 08:56:15;;;;;;;17.50;9.30;;;4.10;99.90;;;;;;5003632;28;20045;-69
2022/12/05 08:58:41;;;;;;;29.40;9.98;;;4.10;99.90;;;;;;4990198;28;20041;-69
2022/12/05 09:01:13;;;;;;;13.77;6.45;;;4.10;99.90;;;;;;4993328;28;20469;-68
2022/12/05 09:03:41;;;;;;;19.30;8.63;;;4.20;99.90;;;;;;5004332;28;20036;-69
2022/12/05 09:06:19;;;;;;;25.17;7.68;;;4.20;99.90;;;;;;5003027;28;20109;-69
2022/12/05 09:08:46;;;;;;;18.20;7.60;;;4.20;99.90;;;;;;4990082;28;20557;-66
2022/12/05 09:11:15;;;;;;;18.90;8.45;;;4.30;99.90;;;;;;4993105;28;20029;-69
2022/12/05 09:13:42;;;;;;;42.42;10.00;;;4.30;99.90;;;;;;4986306;28;20609;-69
2022/12/05 09:16:20;;;;;;;26.70;9.90;;;4.30;99.90;;;;;;5002653;28;20040;-70
2022/12/05 09:18:48;;;;;;;23.27;7.85;;;4.40;99.90;;;;;;5004402;28;20068;-70
2022/12/05 09:21:21;;;;;;;22.58;6.50;;;4.50;99.90;;;;;;4966579;28;20030;-70
2022/12/05 09:23:48;;;;;;;41.30;11.40;;;4.50;99.90;;;;;;4995794;28;20030;-71
2022/12/05 09:26:17;;;;;;;15.93;7.90;;;4.50;99.90;;;;;;4994988;28;20030;-71
2022/12/05 09:28:44;;;;;;;18.02;7.20;;;4.50;99.90;;;;;;5004047;28;20038;-71
2022/12/05 09:31:14;;;;;;;25.83;8.82;;;4.50;99.90;;;;;;5002611;28;20660;-70
2022/12/05 09:33:40;;;;;;;24.27;8.70;;;4.60;99.90;;;;;;5003971;28;20041;-71
2022/12/05 09:36:13;;;;;;;28.15;8.25;;;4.60;99.90;;;;;;4992934;28;20036;-70
2022/12/05 09:38:38;;;;;;;26.33;7.80;;;4.60;99.90;;;;;;4990123;28;20388;-71
2022/12/05 09:42:03;;;;;;;12.23;5.78;;;4.70;99.90;;;;;;4981824;28;20019;-71
2022/12/05 09:45:02;;;;;;;22.33;7.22;;;4.60;99.90;;;;;;4989095;28;20042;-71
2022/12/05 09:48:00;;;;;;;17.33;6.53;;;4.60;99.90;;;;;;4971436;28;20114;-71
2022/12/05 09:50:47;;;;;;;17.88;8.32;;;4.60;99.90;;;;;;4992528;28;20117;-70
2022/12/05 09:53:34;;;;;;;34.08;7.55;;;4.60;99.90;;;;;;4990927;28;20111;-71
2022/12/05 09:56:10;;;;;;;22.85;7.35;;;4.60;99.90;;;;;;5002412;28;20030;-70
2022/12/05 09:58:48;;;;;;;14.75;7.72;;;4.60;99.90;;;;;;4990136;28;20108;-70
2022/12/05 10:01:40;;;;;;;15.95;6.88;;;4.60;99.90;;;;;;4994339;28;20121;-71
2022/12/05 10:04:30;;;;;;;17.73;7.95;;;4.60;99.90;;;;;;5000936;28;20137;-70
2022/12/05 10:07:27;;;;;;;27.20;7.57;;;4.60;99.90;;;;;;5008295;28;20089;-70
2022/12/05 10:10:21;;;;;;;12.77;5.72;;;4.50;99.90;;;;;;4999481;28;20042;-70
2022/12/05 10:12:47;;;;;;;23.33;8.75;;;4.60;99.90;;;;;;5003883;28;20541;-70
2022/12/05 10:15:27;;;;;;;14.85;7.07;;;4.60;99.90;;;;;;4990443;28;20133;-70
2022/12/05 10:18:01;;;;;;;18.80;7.00;;;4.60;99.90;;;;;;4988112;28;20089;-71
2022/12/05 10:21:08;;;;;;;17.05;7.75;;;4.60;99.90;;;;;;4993310;28;20284;-71
2022/12/05 10:23:48;;;;;;;13.77;6.68;;;4.60;99.90;;;;;;4946656;28;20604;-71
2022/12/05 10:26:16;;;;;;;23.27;6.97;;;4.70;99.90;;;;;;4998587;28;20783;-71
2022/12/05 10:29:18;;;;;;;22.58;8.07;;;4.70;99.90;;;;;;4992874;28;20026;-70
2022/12/05 10:31:48;;;;;;;14.93;6.45;;;4.70;99.90;;;;;;5006713;28;20061;-70
2022/12/05 10:34:37;;;;;;;20.73;7.25;;;4.80;99.90;;;;;;5003145;28;20093;-70
2022/12/05 10:37:17;;;;;;;15.95;7.53;;;4.80;99.90;;;;;;4981208;28;20061;-70
2022/12/05 10:39:43;;;;;;;22.50;7.63;;;4.80;99.90;;;;;;4999604;28;20105;-70
2022/12/05 10:42:25;;;;;;;13.95;6.80;;;4.80;99.90;;;;;;4995907;28;20038;-70
2022/12/05 10:45:03;;;;;;;14.10;6.53;;;4.80;99.90;;;;;;4990522;28;20138;-70
2022/12/05 10:47:30;;;;;;;10.80;5.68;;;4.80;99.90;;;;;;5000947;28;20034;-70
2022/12/05 10:50:02;;;;;;;18.35;7.90;;;4.80;99.90;;;;;;4986620;28;20030;-70
2022/12/05 10:52:30;;;;;;;15.65;7.85;;;4.90;99.90;;;;;;4976879;28;20023;-70
2022/12/05 10:55:05;;;;;;;20.38;6.05;;;4.90;99.90;;;;;;4982121;28;20026;-70
2022/12/05 10:57:31;;;;;;;13.63;6.80;;;4.90;99.90;;;;;;4992835;28;20034;-70
2022/12/05 11:00:08;;;;;;;18.92;7.00;;;5.00;99.90;;;;;;5001185;28;20033;-70
2022/12/05 11:02:35;;;;;;;20.70;7.68;;;4.90;99.90;;;;;;4985209;28;20022;-70
2022/12/05 11:05:02;;;;;;;20.08;5.88;;;5.00;99.90;;;;;;4978772;28;20062;-70
2022/12/05 11:07:41;;;;;;;16.90;8.15;;;5.00;99.90;;;;;;4993003;28;20033;-69
2022/12/05 11:10:28;;;;;;;21.92;9.52;;;5.00;99.90;;;;;;4997226;28;20026;-72
2022/12/05 11:12:57;;;;;;;18.42;6.07;;;5.00;99.90;;;;;;4993845;28;20038;-71
2022/12/05 11:15:28;;;;;;;10.88;5.95;;;5.00;99.90;;;;;;4995896;28;20040;-69
2022/12/05 11:17:58;;;;;;;14.00;6.15;;;4.90;99.90;;;;;;5009274;28;20034;-71
2022/12/05 11:20:24;;;;;;;17.25;8.38;;;4.90;99.90;;;;;;4995886;28;20493;-70
2022/12/05 11:22:55;;;;;;;11.80;5.32;;;4.90;99.90;;;;;;5010153;28;20037;-72
2022/12/05 11:25:34;;;;;;;18.50;7.32;;;4.90;99.90;;;;;;4995791;28;20036;-70
2022/12/05 11:28:15;;;;;;;19.58;7.20;;;4.90;99.90;;;;;;5008575;28;20034;-70
2022/12/05 11:31:15;;;;;;;19.92;8.05;;;4.90;99.90;;;;;;4997781;28;20041;-70
2022/12/05 11:33:41;;;;;;;15.02;6.43;;;4.80;99.90;;;;;;4993602;28;20046;-69
2022/12/05 11:36:22;;;;;;;11.38;7.22;;;4.80;99.90;;;;;;4992901;28;20183;-74
2022/12/05 11:38:48;;;;;;;14.27;6.80;;;4.80;99.90;;;;;;4984281;28;20045;-70
2022/12/05 11:41:36;;;;;;;11.25;5.55;;;4.80;99.90;;;;;;4993328;28;20478;-70
2022/12/05 11:44:29;;;;;;;15.93;6.57;;;4.80;99.90;;;;;;4990531;28;20038;-69
2022/12/05 11:47:09;;;;;;;18.60;9.65;;;4.80;99.90;;;;;;4992548;28;20038;-71
2022/12/05 11:50:16;;;;;;;14.23;6.75;;;4.80;99.90;;;;;;4995099;28;20037;-70
2022/12/05 11:52:56;;;;;;;31.10;10.13;;;4.90;99.90;;;;;;5009720;28;20030;-70
2022/12/05 11:55:40;;;;;;;26.83;10.97;;;4.90;99.90;;;;;;4988814;28;20060;-71
2022/12/05 11:58:38;;;;;;;25.95;9.02;;;4.90;99.90;;;;;;4992545;28;20109;-69
2022/12/05 12:01:09;;;;;;;34.67;8.40;;;4.90;99.90;;;;;;4985074;28;20033;-71
2022/12/05 12:04:23;;;;;;;18.35;8.45;;;4.90;99.90;;;;;;4999130;28;20065;-73
2022/12/05 12:07:41;;;;;;;13.02;5.80;;;5.00;99.90;;;;;;4957947;28;20498;-73
2022/12/05 12:10:30;;;;;;;15.15;7.43;;;5.10;99.90;;;;;;5000424;28;20157;-73
2022/12/05 12:13:17;;;;;;;16.83;8.40;;;5.20;99.90;;;;;;4985889;28;20397;-74
2022/12/05 12:16:10;;;;;;;17.58;7.63;;;5.20;99.90;;;;;;4994409;28;20389;-76
2022/12/05 12:18:51;;;;;;;18.50;9.07;;;5.30;99.90;;;;;;4989675;28;20022;-72
2022/12/05 12:21:30;;;;;;;25.33;7.43;;;5.30;99.90;;;;;;4973060;28;20118;-70
2022/12/05 12:24:09;;;;;;;14.15;7.32;;;5.30;99.90;;;;;;4987961;28;20097;-70
2022/12/05 12:27:30;;;;;;;12.93;4.93;;;5.30;99.90;;;;;;5012472;28;20045;-70
2022/12/05 12:30:26;;;;;;;18.80;6.53;;;5.40;99.90;;;;;;4997487;28;20054;-70
2022/12/05 12:33:23;;;;;;;11.65;6.05;;;5.50;99.90;;;;;;4989403;28;20042;-70
2022/12/05 12:35:59;;;;;;;20.58;7.18;;;5.60;99.90;;;;;;4995341;28;20061;-69
2022/12/05 12:38:51;;;;;;;13.63;5.90;;;5.70;99.90;;;;;;4989165;28;20028;-70
2022/12/05 12:41:57;;;;;;;16.08;7.35;;;5.70;99.90;;;;;;4955620;28;20070;-70
2022/12/05 12:45:23;;;;;;;21.05;7.78;;;5.70;99.90;;;;;;4990815;28;20056;-70
2022/12/05 12:48:07;;;;;;;18.77;7.65;;;5.90;99.90;;;;;;5006468;23;20050;-66
2022/12/05 12:50:39;;;;;;;20.20;6.60;;;5.80;99.90;;;;;;5013030;28;20025;-66
2022/12/05 12:53:13;;;;;;;18.10;8.52;;;5.90;99.90;;;;;;5008480;28;20056;-66
2022/12/05 12:56:13;;;;;;;11.38;5.80;;;5.90;99.90;;;;;;5016082;28;20049;-66
2022/12/05 12:59:20;;;;;;;16.38;6.78;;;5.90;99.90;;;;;;5018759;28;20030;-66
2022/12/05 13:02:00;;;;;;;20.15;6.32;;;6.20;99.90;;;;;;4944571;29;20066;-67
2022/12/05 13:04:43;;;;;;;14.50;6.72;;;6.30;99.90;;;;;;4917563;29;20035;-66
2022/12/05 13:07:19;;;;;;;14.07;6.78;;;6.40;99.90;;;;;;4981300;28;20520;-66
2022/12/05 13:09:56;;;;;;;17.27;7.28;;;6.60;99.90;;;;;;5013728;28;20392;-66
2022/12/05 13:12:28;;;;;;;18.33;5.43;;;6.80;99.90;;;;;;5010983;28;20040;-66
2022/12/05 13:15:43;;;;;;;14.93;6.18;;;6.90;99.90;;;;;;5013265;28;20026;-66
2022/12/05 13:18:35;;;;;;;11.38;4.75;;;6.90;99.90;;;;;;5003158;28;20041;-66
2022/12/05 13:21:08;;;;;;;12.10;5.05;;;6.90;99.90;;;;;;5026567;28;20061;-66
2022/12/05 13:23:45;;;;;;;10.80;4.75;;;7.10;99.90;;;;;;5006342;28;20029;-66
2022/12/05 13:26:13;;;;;;;15.82;5.90;;;6.80;99.90;;;;;;5030624;28;20123;-66
2022/12/05 13:28:49;;;;;;;9.65;4.47;;;6.60;99.90;;;;;;5006244;28;20030;-66
2022/12/05 13:31:16;;;;;;;13.82;4.20;;;6.70;99.90;;;;;;4991317;28;20092;-66
2022/12/05 13:33:50;;;;;;;9.23;4.25;;;6.70;99.90;;;;;;5016532;28;20034;-66
2022/12/05 13:42:19;;;;;;;6.30;3.17;;;6.40;99.90;;;;;;5012808;28;20034;-66